Time;durP1;ratioP1;P1;durP2;ratioP2;P2;SDS_P1;SDS_P2;PMS_P1;PMS_P2;Temp;Humidity;BMP_temperature;BMP_pressure;BME280_temperature;BME280_humidity;BME280_pressure;Samples;Min_cycle;Max_cycle;Signal;HPM_P1;HPM_P2
2022/04/13 00:01:06;;;;;;;9.93;6.60;;;;;;;6.87;66.59;99643.41;4975810;28;20057;-80
2022/04/13 00:03:32;;;;;;;10.18;6.82;;;;;;;7.01;66.15;99649.50;4986676;28;20080;-79
2022/04/13 00:05:58;;;;;;;10.35;6.38;;;;;;;7.04;66.36;99648.63;5008075;28;20046;-79
2022/04/13 00:09:03;;;;;;;10.15;6.75;;;;;;;6.24;65.78;99518.22;4970872;28;20089;-81
2022/04/13 00:11:29;;;;;;;9.75;6.72;;;;;;;7.02;66.48;99663.28;4940076;29;20043;-79
2022/04/13 00:13:55;;;;;;;12.40;7.45;;;;;;;7.07;66.59;99659.00;4940523;29;20049;-79
2022/04/13 00:16:21;;;;;;;12.82;7.25;;;;;;;6.92;66.13;99644.28;4944007;28;20493;-78
2022/04/13 00:18:46;;;;;;;10.50;6.88;;;;;;;6.95;66.23;99661.56;4963488;28;20034;-80
2022/04/13 00:21:13;;;;;;;10.60;7.07;;;;;;;6.96;66.58;99663.25;4996990;28;20541;-78
2022/04/13 00:23:38;;;;;;;9.30;6.85;;;;;;;6.98;66.26;99669.31;4996173;28;20510;-80
2022/04/13 00:26:04;;;;;;;10.23;7.13;;;;;;;6.99;66.48;99664.16;4994920;28;20494;-79
2022/04/13 00:28:30;;;;;;;10.85;7.22;;;;;;;6.91;66.61;99642.56;4977108;28;20034;-79
2022/04/13 00:30:56;;;;;;;9.85;6.82;;;;;;;6.86;66.33;99639.09;4976339;28;20069;-83
2022/04/13 00:33:22;;;;;;;11.98;7.13;;;;;;;6.96;65.82;99660.69;4978097;28;20106;-78
2022/04/13 00:35:48;;;;;;;11.02;7.38;;;;;;;6.93;66.77;99659.84;4995953;28;20049;-78
2022/04/13 00:38:14;;;;;;;9.32;6.63;;;;;;;6.82;66.18;99645.97;4945406;28;20069;-80
2022/04/13 00:40:40;;;;;;;10.07;6.60;;;;;;;6.96;66.73;99668.44;4959853;28;20046;-79
2022/04/13 00:43:07;;;;;;;10.63;6.72;;;;;;;6.92;66.27;99673.63;4994242;28;20042;-80
2022/04/13 00:45:33;;;;;;;14.60;7.10;;;;;;;6.82;66.58;99645.97;4977143;28;20548;-77
2022/04/13 00:48:02;;;;;;;11.27;7.30;;;;;;;6.88;65.57;99655.47;4977789;28;20183;-79
2022/04/13 00:50:28;;;;;;;9.45;6.78;;;;;;;6.75;66.33;99654.56;4977450;28;20039;-80
2022/04/13 00:52:56;;;;;;;11.40;7.50;;;;;;;6.35;65.95;99600.09;4993911;28;20071;-79
2022/04/13 00:55:24;;;;;;;9.60;6.82;;;;;;;6.58;66.63;99629.50;4960960;28;20034;-77
2022/04/13 00:57:51;;;;;;;10.27;6.68;;;;;;;6.77;66.75;99652.84;4976269;28;20053;-78
2022/04/13 01:00:19;;;;;;;9.35;6.50;;;;;;;6.82;66.27;99652.88;4991704;28;20121;-79
2022/04/13 01:02:45;;;;;;;8.60;5.90;;;;;;;6.66;65.50;99639.03;4992402;28;20060;-78
2022/04/13 01:05:12;;;;;;;11.00;6.50;;;;;;;6.68;66.73;99639.91;4992724;28;20038;-80
2022/04/13 01:07:41;;;;;;;11.10;7.07;;;;;;;6.63;66.17;99650.19;4991537;28;20042;-77
2022/04/13 01:10:07;;;;;;;10.05;6.80;;;;;;;6.67;66.37;99651.09;4993302;28;20065;-77
2022/04/13 01:12:34;;;;;;;10.13;6.32;;;;;;;6.75;66.34;99654.56;4975876;28;20046;-79
2022/04/13 01:15:01;;;;;;;8.02;5.95;;;;;;;6.61;65.89;99641.59;4991994;28;20038;-76
2022/04/13 01:17:27;;;;;;;8.15;6.10;;;;;;;6.72;66.77;99662.34;4992541;28;20053;-78
2022/04/13 01:19:54;;;;;;;9.13;6.05;;;;;;;6.68;66.36;99658.00;4999586;28;20469;-78
2022/04/13 01:22:21;;;;;;;10.00;6.22;;;;;;;6.60;66.57;99638.13;4995110;28;20448;-79
2022/04/13 01:24:47;;;;;;;10.77;6.85;;;;;;;6.51;66.24;99638.06;5012831;28;20046;-79
2022/04/13 01:27:14;;;;;;;8.38;6.00;;;;;;;6.55;66.98;99642.41;5003701;28;20034;-78
2022/04/13 01:29:45;;;;;;;8.55;6.05;;;;;;;6.69;66.51;99657.16;4998517;28;20539;-78
2022/04/13 01:32:12;;;;;;;10.48;6.10;;;;;;;6.62;66.61;99644.19;5000166;28;20033;-77
2022/04/13 01:34:52;;;;;;;8.35;6.57;;;;;;;6.68;65.65;99664.00;5006752;28;20488;-78
2022/04/13 01:37:19;;;;;;;8.30;6.22;;;;;;;6.64;66.45;99662.28;5022705;28;20125;-78
2022/04/13 01:39:45;;;;;;;8.18;6.07;;;;;;;6.70;66.76;99666.63;5013113;28;20046;-79
2022/04/13 01:42:13;;;;;;;8.55;6.00;;;;;;;6.66;66.84;99657.13;5012935;28;20054;-80
2022/04/13 01:44:41;;;;;;;8.75;6.53;;;;;;;6.57;66.69;99635.53;4980524;28;20038;-79
2022/04/13 01:47:08;;;;;;;9.27;7.22;;;;;;;6.71;66.91;99661.44;5011848;28;20101;-81
2022/04/13 01:49:35;;;;;;;10.38;8.18;;;;;;;6.57;66.70;99656.22;5009513;28;20481;-80
2022/04/13 01:52:03;;;;;;;10.18;7.53;;;;;;;6.47;66.25;99652.72;4978532;28;20088;-78
2022/04/13 01:54:29;;;;;;;15.80;8.60;;;;;;;6.49;66.22;99644.97;5010767;28;20050;-79
2022/04/13 01:56:55;;;;;;;10.32;7.30;;;;;;;6.52;66.19;99650.13;4978306;28;20053;-79
2022/04/13 01:59:21;;;;;;;10.07;6.68;;;;;;;6.56;66.16;99664.81;5010298;28;20070;-79
2022/04/13 02:01:47;;;;;;;12.38;6.50;;;;;;;6.51;65.34;99670.81;4993745;28;20513;-78
2022/04/13 02:04:20;;;;;;;8.80;6.55;;;;;;;6.17;66.00;99625.84;4993858;28;20061;-80
2022/04/13 02:06:47;;;;;;;7.65;6.18;;;;;;;6.39;66.74;99667.34;5010687;28;20072;-78
2022/04/13 02:09:14;;;;;;;13.38;6.15;;;;;;;6.30;66.10;99650.03;5011391;28;20038;-77
2022/04/13 02:11:40;;;;;;;8.75;5.90;;;;;;;6.34;66.79;99648.34;5010327;28;20050;-78
2022/04/13 02:14:07;;;;;;;10.55;6.30;;;;;;;6.38;65.85;99665.59;5010870;28;20034;-78
2022/04/13 02:16:34;;;;;;;10.00;6.10;;;;;;;6.48;66.37;99682.88;5011058;28;20076;-77
2022/04/13 02:19:00;;;;;;;8.65;5.82;;;;;;;6.46;66.72;99670.81;4992904;28;20503;-81
2022/04/13 02:21:26;;;;;;;8.65;5.97;;;;;;;6.25;66.72;99654.31;5010740;28;20061;-79
2022/04/13 02:23:52;;;;;;;8.00;5.55;;;;;;;6.48;67.30;99685.47;4993569;28;20137;-78
2022/04/13 02:26:19;;;;;;;8.50;5.47;;;;;;;6.55;67.13;99688.09;5009825;28;20473;-79
2022/04/13 02:28:46;;;;;;;7.68;5.65;;;;;;;6.47;66.59;99673.38;5011167;28;20129;-77
2022/04/13 02:31:12;;;;;;;8.23;5.85;;;;;;;6.53;66.70;99690.66;4993580;28;20041;-77
2022/04/13 02:33:39;;;;;;;10.15;5.60;;;;;;;6.51;66.35;99682.03;5010799;28;20401;-80
2022/04/13 02:36:05;;;;;;;8.02;5.78;;;;;;;6.58;66.16;99691.56;4993307;28;20041;-78
2022/04/13 02:38:35;;;;;;;9.68;5.25;;;;;;;6.51;66.65;99700.13;4992884;28;20156;-79
2022/04/13 02:41:01;;;;;;;8.43;5.43;;;;;;;6.45;66.51;99687.19;4976949;28;20038;-80
2022/04/13 02:43:29;;;;;;;7.65;5.47;;;;;;;6.44;66.55;99690.63;5011240;28;20045;-77
2022/04/13 02:45:57;;;;;;;8.40;6.25;;;;;;;6.45;66.30;99697.50;5009673;28;20064;-79
2022/04/13 02:48:23;;;;;;;6.82;5.32;;;;;;;6.58;66.28;99703.63;5010661;28;20042;-78
2022/04/13 02:50:49;;;;;;;8.77;5.20;;;;;;;6.47;65.93;99698.41;4993233;28;20030;-77
2022/04/13 02:53:16;;;;;;;7.57;5.50;;;;;;;6.44;66.92;99694.03;5011283;28;20099;-79
2022/04/13 02:55:42;;;;;;;7.97;5.70;;;;;;;6.48;66.75;99708.72;5011157;28;20045;-79
2022/04/13 02:58:08;;;;;;;9.88;5.80;;;;;;;6.43;66.28;99707.81;5010460;28;20045;-80
2022/04/13 03:00:34;;;;;;;7.95;5.88;;;;;;;6.29;66.53;99699.13;5012207;28;20030;-80
2022/04/13 03:03:01;;;;;;;7.53;5.45;;;;;;;6.38;66.66;99716.41;5012304;28;20034;-79
2022/04/13 03:05:26;;;;;;;9.77;5.97;;;;;;;6.23;66.54;99683.56;5025768;28;20024;-80
2022/04/13 03:07:52;;;;;;;7.00;5.78;;;;;;;6.45;66.83;99713.88;4993589;28;20097;-80
2022/04/13 03:10:18;;;;;;;7.80;5.10;;;;;;;6.55;66.47;99730.31;5015447;28;20041;-78
2022/04/13 03:12:44;;;;;;;6.25;5.13;;;;;;;6.48;65.97;99720.81;5011626;28;20421;-79
2022/04/13 03:15:11;;;;;;;7.22;5.20;;;;;;;6.56;66.66;99738.94;5011307;28;20107;-79
2022/04/13 03:17:38;;;;;;;7.30;5.00;;;;;;;6.39;65.66;99713.84;4976928;28;20048;-78
2022/04/13 03:20:05;;;;;;;6.97;5.47;;;;;;;6.45;66.19;99738.88;5010023;28;20061;-79
2022/04/13 03:22:31;;;;;;;9.52;5.47;;;;;;;6.28;66.33;99698.28;5009210;28;20096;-78
2022/04/13 03:25:00;;;;;;;10.00;5.75;;;;;;;6.55;65.69;99726.88;4993145;28;20119;-81
2022/04/13 03:27:26;;;;;;;7.47;5.25;;;;;;;6.62;65.97;99745.00;5010648;28;20406;-82
2022/04/13 03:29:52;;;;;;;8.20;5.45;;;;;;;6.53;66.03;99726.84;5010676;28;20104;-79
2022/04/13 03:32:18;;;;;;;10.52;5.82;;;;;;;6.45;65.96;99705.28;5010529;28;20057;-84
2022/04/13 03:34:44;;;;;;;7.55;5.70;;;;;;;6.67;66.24;99750.22;4976506;28;20042;-76
2022/04/13 03:37:10;;;;;;;7.88;5.07;;;;;;;6.43;64.98;99710.41;4993197;28;20455;-80
2022/04/13 03:39:39;;;;;;;10.77;5.47;;;;;;;6.63;64.76;99738.09;4996708;28;20536;-79
2022/04/13 03:42:05;;;;;;;8.48;5.35;;;;;;;6.58;66.53;99737.25;4997170;28;20440;-77
2022/04/13 03:44:32;;;;;;;9.25;5.85;;;;;;;6.51;66.22;99719.94;4980770;28;20038;-80
2022/04/13 03:46:58;;;;;;;9.32;6.35;;;;;;;6.67;66.29;99741.59;5014610;28;20042;-82
2022/04/13 03:49:24;;;;;;;8.23;5.68;;;;;;;6.61;65.99;99740.69;5013529;28;20037;-78
2022/04/13 03:51:50;;;;;;;7.63;6.28;;;;;;;6.63;65.75;99745.88;5014043;28;20045;-78
2022/04/13 03:54:16;;;;;;;9.60;6.43;;;;;;;6.62;65.77;99718.31;4996005;28;20052;-81
2022/04/13 03:56:42;;;;;;;8.43;5.70;;;;;;;6.62;66.20;99714.00;5018177;28;20080;-79
2022/04/13 03:59:10;;;;;;;8.55;6.28;;;;;;;6.26;65.43;99650.88;5017604;28;20053;-78
2022/04/13 04:01:40;;;;;;;13.48;6.85;;;;;;;6.74;65.72;99720.94;4997985;28;20133;-83
2022/04/13 04:04:10;;;;;;;12.07;6.78;;;;;;;6.77;65.03;99726.16;4999026;28;20046;-81
2022/04/13 04:06:36;;;;;;;6.85;5.10;;;;;;;6.47;65.06;99722.50;4982737;28;20137;-79
2022/04/13 04:09:02;;;;;;;7.53;5.90;;;;;;;6.73;65.28;99736.47;4999094;28;20042;-80
2022/04/13 04:11:28;;;;;;;6.88;5.40;;;;;;;6.80;64.66;99745.97;4985056;28;20569;-78
2022/04/13 04:13:54;;;;;;;8.00;6.05;;;;;;;6.96;64.94;99754.69;5004065;28;20434;-80
2022/04/13 04:16:20;;;;;;;8.10;5.90;;;;;;;6.98;65.28;99750.41;5017330;28;20116;-81
2022/04/13 04:18:50;;;;;;;7.47;5.40;;;;;;;7.07;65.42;99755.59;5017781;28;20072;-79
2022/04/13 04:21:16;;;;;;;7.80;5.38;;;;;;;6.56;65.29;99674.31;4986574;28;20053;-79
2022/04/13 04:23:43;;;;;;;8.40;5.80;;;;;;;7.07;64.98;99763.34;5025730;28;20559;-79
2022/04/13 04:26:09;;;;;;;7.60;5.25;;;;;;;7.12;65.26;99763.41;5010057;28;20065;-77
2022/04/13 04:28:38;;;;;;;9.43;5.70;;;;;;;7.04;65.56;99745.25;5029926;28;20049;-79
2022/04/13 04:31:04;;;;;;;7.05;5.40;;;;;;;7.27;64.65;99772.09;5008181;28;20033;-80
2022/04/13 04:33:31;;;;;;;9.77;5.18;;;;;;;7.00;65.02;99724.50;4986388;28;20069;-79
2022/04/13 04:35:57;;;;;;;8.90;5.47;;;;;;;7.01;64.27;99750.41;5002685;28;20063;-79
2022/04/13 04:38:23;;;;;;;7.38;5.55;;;;;;;7.16;64.76;99761.69;4979311;28;20038;-80
2022/04/13 04:40:50;;;;;;;11.90;5.63;;;;;;;6.48;64.25;99656.19;5017354;28;20038;-80
2022/04/13 04:43:15;;;;;;;9.63;5.28;;;;;;;7.09;64.44;99755.63;5039038;28;20052;-79
2022/04/13 04:45:42;;;;;;;6.75;5.05;;;;;;;7.17;64.34;99768.59;5005343;28;20026;-80
2022/04/13 04:48:08;;;;;;;8.40;5.10;;;;;;;7.08;64.55;99730.59;5037711;28;20030;-80
2022/04/13 04:50:34;;;;;;;6.32;4.90;;;;;;;7.42;64.67;99772.13;5019780;28;20018;-82
2022/04/13 04:53:00;;;;;;;8.05;4.95;;;;;;;7.44;64.18;99757.47;5033633;28;20041;-81
2022/04/13 04:55:28;;;;;;;7.88;5.10;;;;;;;7.51;64.39;99771.28;5014940;28;20038;-83
2022/04/13 04:57:54;;;;;;;7.65;5.38;;;;;;;7.59;64.31;99769.59;4996384;28;20057;-83
2022/04/13 05:00:21;;;;;;;6.10;5.15;;;;;;;7.71;63.88;99768.78;5014839;28;20042;-79
2022/04/13 05:02:54;;;;;;;9.88;5.00;;;;;;;7.73;63.97;99761.88;4998136;28;20044;-81
2022/04/13 05:05:21;;;;;;;6.30;4.72;;;;;;;7.72;63.37;99746.34;4998618;28;20038;-83
2022/04/13 05:07:47;;;;;;;6.05;4.72;;;;;;;7.69;63.03;99742.88;5014251;28;20138;-80
2022/04/13 05:10:14;;;;;;;6.25;5.10;;;;;;;7.77;63.25;99745.47;5013053;28;20034;-81
2022/04/13 05:12:44;;;;;;;5.78;4.40;;;;;;;7.98;63.55;99773.13;5013995;28;20409;-81
2022/04/13 05:15:11;;;;;;;5.63;4.93;;;;;;;7.59;62.93;99724.72;5014507;28;20528;-80
2022/04/13 05:17:37;;;;;;;9.27;5.00;;;;;;;7.55;62.69;99731.59;4997561;28;20667;-80
2022/04/13 05:20:05;;;;;;;7.47;5.38;;;;;;;7.83;63.29;99771.38;5012539;28;20513;-82
2022/04/13 05:22:31;;;;;;;7.47;5.45;;;;;;;7.95;63.36;99761.91;5001266;28;20497;-81
2022/04/13 05:25:17;;;;;;;8.98;5.47;;;;;;;7.28;62.88;99667.69;5015681;28;20390;-80
2022/04/13 05:27:44;;;;;;;6.00;4.82;;;;;;;7.95;62.85;99759.31;5015855;28;20041;-79
2022/04/13 05:30:14;;;;;;;5.18;4.68;;;;;;;8.17;62.58;99793.03;5010915;28;20040;-81
2022/04/13 05:32:47;;;;;;;6.80;5.07;;;;;;;8.29;62.77;99806.00;4999755;28;20049;-81
2022/04/13 05:35:13;;;;;;;8.43;5.30;;;;;;;8.39;62.60;99802.56;5014991;28;20089;-81
2022/04/13 05:37:39;;;;;;;12.00;5.20;;;;;;;8.37;62.22;99812.06;5016253;28;20049;-80
2022/04/13 05:40:06;;;;;;;5.88;4.90;;;;;;;8.19;62.04;99796.50;5014345;28;20041;-81
2022/04/13 05:42:34;;;;;;;8.20;5.68;;;;;;;8.17;61.90;99788.69;4997124;28;20049;-82
2022/04/13 05:45:01;;;;;;;12.30;4.95;;;;;;;7.95;61.89;99730.81;5013667;28;20038;-79
2022/04/13 05:47:29;;;;;;;7.22;5.30;;;;;;;8.14;61.28;99753.28;5000283;28;20060;-81
2022/04/13 05:49:55;;;;;;;7.30;4.93;;;;;;;8.53;61.47;99814.66;4969247;28;20040;-81
2022/04/13 05:52:22;;;;;;;8.25;4.70;;;;;;;8.37;61.48;99790.47;4982357;28;20061;-80
2022/04/13 05:55:22;;;;;;;7.35;5.43;;;;;;;8.29;61.71;99775.75;4997049;28;20033;-81
2022/04/13 05:57:49;;;;;;;6.25;5.10;;;;;;;8.52;61.43;99813.81;4996975;28;20056;-81
2022/04/13 06:00:18;;;;;;;6.75;5.20;;;;;;;8.16;61.04;99783.53;4997008;28;20126;-82
2022/04/13 06:02:44;;;;;;;8.93;5.68;;;;;;;8.35;60.80;99807.75;5016193;28;20438;-82
2022/04/13 06:05:10;;;;;;;8.90;5.88;;;;;;;8.49;61.06;99825.94;5014689;28;20081;-82
2022/04/13 06:07:37;;;;;;;8.02;5.20;;;;;;;8.58;61.29;99836.28;5015698;28;20048;-80
2022/04/13 06:10:19;;;;;;;8.40;5.13;;;;;;;8.42;61.07;99806.84;4999114;28;20033;-81
2022/04/13 06:12:48;;;;;;;7.63;5.55;;;;;;;8.13;61.23;99769.69;4997462;28;20045;-81
2022/04/13 06:15:14;;;;;;;9.52;5.75;;;;;;;8.19;61.06;99778.34;5017408;28;20058;-82
2022/04/13 06:17:50;;;;;;;9.50;5.78;;;;;;;8.39;61.05;99807.72;4995717;28;20057;-81
2022/04/13 06:20:45;;;;;;;8.98;5.55;;;;;;;7.91;60.59;99740.31;5013434;28;20045;-81
2022/04/13 06:23:21;;;;;;;7.45;5.60;;;;;;;8.12;60.79;99760.19;5022833;28;20058;-81
2022/04/13 06:25:47;;;;;;;7.78;5.38;;;;;;;8.32;60.30;99812.91;4995316;28;20060;-80
2022/04/13 06:28:13;;;;;;;6.43;5.63;;;;;;;8.12;60.65;99793.03;4995404;28;20560;-82
2022/04/13 06:30:39;;;;;;;9.60;5.82;;;;;;;8.51;61.00;99845.81;5013383;28;20045;-83
2022/04/13 06:33:05;;;;;;;9.50;6.45;;;;;;;8.66;61.06;99844.94;4994747;28;20095;-81
2022/04/13 06:35:31;;;;;;;9.68;6.15;;;;;;;8.37;60.64;99798.25;5013074;28;20045;-80
2022/04/13 06:37:57;;;;;;;8.40;5.70;;;;;;;8.77;60.20;99844.94;5012023;28;20068;-81
2022/04/13 06:40:25;;;;;;;7.00;5.90;;;;;;;8.79;60.01;99847.53;4994712;28;20505;-81
2022/04/13 06:42:57;;;;;;;7.43;5.68;;;;;;;8.54;60.57;99800.84;4993948;28;20053;-79
2022/04/13 06:45:24;;;;;;;9.98;5.78;;;;;;;8.38;60.47;99772.28;4991171;28;20038;-79
2022/04/13 06:47:52;;;;;;;9.45;5.97;;;;;;;8.34;60.15;99729.06;4994752;28;20049;-80
2022/04/13 06:50:21;;;;;;;10.05;5.38;;;;;;;9.31;59.72;99863.00;4995245;28;20045;-80
2022/04/13 06:52:47;;;;;;;9.85;5.53;;;;;;;8.95;59.50;99765.31;5012158;28;20042;-82
2022/04/13 06:55:13;;;;;;;10.98;6.00;;;;;;;9.52;59.96;99834.34;5013436;28;20053;-80
2022/04/13 06:57:41;;;;;;;7.55;5.70;;;;;;;9.79;59.93;99846.38;4995533;28;20064;-80
2022/04/13 07:00:09;;;;;;;11.60;5.32;;;;;;;10.01;59.26;99857.53;5000481;28;20067;-79
2022/04/13 07:02:36;;;;;;;11.13;5.47;;;;;;;9.99;58.46;99838.47;5013730;28;20072;-80
2022/04/13 07:05:03;;;;;;;8.05;6.10;;;;;;;10.25;58.69;99872.13;5013478;28;20136;-80
2022/04/13 07:07:29;;;;;;;8.27;5.95;;;;;;;9.63;58.39;99757.25;5014116;28;20078;-81
2022/04/13 07:09:55;;;;;;;8.05;5.78;;;;;;;10.42;57.72;99872.91;4985367;28;20561;-79
2022/04/13 07:12:36;;;;;;;10.32;6.45;;;;;;;10.25;57.88;99866.03;4985081;28;20076;-82
2022/04/13 07:15:03;;;;;;;10.77;5.68;;;;;;;10.40;57.41;99873.78;5016046;28;20476;-82
2022/04/13 07:17:30;;;;;;;9.10;6.05;;;;;;;10.47;57.77;99871.13;5014482;28;20072;-81
2022/04/13 07:19:56;;;;;;;9.27;5.60;;;;;;;10.40;57.48;99855.56;5001733;28;20061;-81
2022/04/13 07:22:24;;;;;;;10.00;5.70;;;;;;;10.37;56.61;99855.53;4998817;28;20034;-80
2022/04/13 07:24:51;;;;;;;13.02;5.75;;;;;;;10.46;56.79;99864.19;5009931;28;20061;-81
2022/04/13 07:27:17;;;;;;;9.80;7.22;;;;;;;10.38;56.43;99846.03;4994398;28;20025;-81
2022/04/13 07:29:43;;;;;;;18.98;6.57;;;;;;;10.53;56.63;99860.69;5019894;28;20042;-80
2022/04/13 07:32:10;;;;;;;8.27;5.70;;;;;;;10.69;56.41;99887.47;5010120;28;20038;-80
2022/04/13 07:34:36;;;;;;;15.65;6.80;;;;;;;10.66;55.94;99888.31;5008506;28;20077;-81
2022/04/13 07:37:05;;;;;;;8.25;5.80;;;;;;;10.47;55.99;99851.19;5001360;28;20045;-83
2022/04/13 07:39:35;;;;;;;7.88;6.00;;;;;;;9.90;56.06;99752.75;5016949;28;20069;-81
2022/04/13 07:42:02;;;;;;;10.30;6.07;;;;;;;9.74;55.82;99726.00;4967336;28;20053;-81
2022/04/13 07:44:30;;;;;;;9.82;6.20;;;;;;;9.78;56.17;99732.91;5000319;28;20049;-81
2022/04/13 07:46:58;;;;;;;12.63;6.05;;;;;;;10.05;54.63;99816.75;5028966;28;20620;-85
2022/04/13 07:49:24;;;;;;;14.75;6.35;;;;;;;9.49;55.60;99741.75;4997623;28;20037;-81
2022/04/13 07:51:51;;;;;;;13.82;6.30;;;;;;;10.13;55.67;99847.94;5020067;28;20394;-84
2022/04/13 07:54:17;;;;;;;10.13;5.78;;;;;;;10.03;55.63;99816.78;4985391;28;20089;-80
2022/04/13 07:56:43;;;;;;;10.00;5.90;;;;;;;9.58;55.46;99754.69;5034637;28;20026;-84
2022/04/13 07:59:14;;;;;;;12.77;6.95;;;;;;;9.90;54.74;99815.16;5015976;28;20082;-81
2022/04/13 08:01:44;;;;;;;9.95;5.63;;;;;;;9.51;55.37;99734.81;5023209;28;20069;-82
2022/04/13 08:04:10;;;;;;;9.52;5.20;;;;;;;10.02;54.96;99801.22;4998672;28;20044;-81
2022/04/13 08:06:36;;;;;;;7.05;5.18;;;;;;;10.75;55.27;99908.22;4998029;28;20053;-82
2022/04/13 08:09:02;;;;;;;11.35;6.13;;;;;;;10.08;54.75;99780.34;5014825;28;20034;-81
2022/04/13 08:11:28;;;;;;;7.65;5.60;;;;;;;10.48;54.95;99834.69;5014352;28;20045;-79
2022/04/13 08:13:54;;;;;;;8.48;5.50;;;;;;;10.69;55.15;99867.50;4997472;28;20141;-79
2022/04/13 08:16:21;;;;;;;8.88;6.30;;;;;;;11.03;54.61;99902.78;5015241;28;20124;-82
2022/04/13 08:18:52;;;;;;;9.82;6.32;;;;;;;11.05;54.50;99908.84;4997464;28;20073;-81
2022/04/13 08:21:35;;;;;;;14.85;6.60;;;;;;;11.02;54.22;99889.78;4965240;28;20057;-81
2022/04/13 08:24:01;;;;;;;9.85;6.13;;;;;;;11.17;54.20;99904.38;4996934;28;20053;-83
2022/04/13 08:26:28;;;;;;;13.38;6.57;;;;;;;11.10;53.96;99903.56;5000027;28;20045;-81
2022/04/13 08:28:54;;;;;;;15.73;6.80;;;;;;;10.58;54.36;99821.63;4999520;28;20050;-81
2022/04/13 08:31:20;;;;;;;13.68;5.90;;;;;;;11.07;53.87;99919.22;5002611;28;20038;-82
2022/04/13 08:33:46;;;;;;;11.00;6.53;;;;;;;11.14;53.49;99910.50;5001436;28;20400;-80
2022/04/13 08:36:15;;;;;;;8.75;6.13;;;;;;;10.90;52.59;99904.63;5029142;28;20065;-82
2022/04/13 08:38:44;;;;;;;9.77;6.68;;;;;;;10.52;53.46;99869.38;4991200;28;20042;-80
2022/04/13 08:41:15;;;;;;;11.35;6.50;;;;;;;10.71;53.89;99888.28;4987240;28;20058;-82
2022/04/13 08:43:54;;;;;;;9.45;6.03;;;;;;;11.03;53.99;99921.00;5002773;28;20042;-82
2022/04/13 08:46:27;;;;;;;10.25;6.15;;;;;;;10.69;53.88;99791.16;5021103;28;20072;-82
2022/04/13 08:49:17;;;;;;;12.68;6.15;;;;;;;10.93;53.52;99800.47;5001196;28;20057;-84
2022/04/13 08:51:54;;;;;;;10.02;5.90;;;;;;;11.29;52.72;99810.50;4984963;28;20525;-84
2022/04/13 08:54:28;;;;;;;10.25;5.82;;;;;;;11.78;53.29;99881.16;5000191;28;20034;-83
2022/04/13 08:57:00;;;;;;;10.55;6.40;;;;;;;11.73;52.46;99863.81;4982568;28;20049;-81
2022/04/13 08:59:59;;;;;;;10.18;6.25;;;;;;;12.20;52.52;99915.41;5015120;28;20038;-81
2022/04/13 09:02:50;;;;;;;13.05;6.70;;;;;;;12.47;52.17;99918.47;4998156;28;20037;-81
2022/04/13 09:05:23;;;;;;;11.68;5.97;;;;;;;12.57;52.13;99914.00;4995857;28;20125;-83
2022/04/13 09:08:17;;;;;;;11.10;6.10;;;;;;;12.62;51.67;99891.28;4995378;28;20041;-81
2022/04/13 09:10:44;;;;;;;16.83;6.35;;;;;;;12.74;50.93;99911.13;4996330;28;20124;-82
2022/04/13 09:13:10;;;;;;;9.73;5.75;;;;;;;12.57;50.91;99862.66;4998030;28;20042;-82
2022/04/13 09:15:41;;;;;;;9.35;5.63;;;;;;;12.86;50.49;99916.16;4996584;28;20045;-83
2022/04/13 09:18:08;;;;;;;11.00;5.57;;;;;;;12.89;50.91;99904.78;5014391;28;20045;-81
2022/04/13 09:20:36;;;;;;;8.27;5.50;;;;;;;13.10;50.57;99921.84;5001143;28;20297;-82
2022/04/13 09:23:04;;;;;;;16.25;5.97;;;;;;;13.25;50.60;99913.72;4995165;28;20041;-81
2022/04/13 09:25:34;;;;;;;11.88;6.85;;;;;;;12.85;50.05;99846.53;5003567;28;20076;-81
2022/04/13 09:28:02;;;;;;;10.10;6.45;;;;;;;13.35;50.07;99913.56;4979868;28;20080;-81
2022/04/13 09:30:30;;;;;;;9.38;6.13;;;;;;;12.94;49.18;99855.94;4978269;28;20034;-81
2022/04/13 09:32:58;;;;;;;12.05;5.93;;;;;;;12.89;49.62;99869.09;4956364;28;20057;-82
2022/04/13 09:35:31;;;;;;;10.55;6.28;;;;;;;12.55;49.71;99806.16;5012514;28;20058;-81
2022/04/13 09:38:01;;;;;;;13.77;6.55;;;;;;;13.24;49.76;99891.09;5004449;28;20042;-82
2022/04/13 09:40:58;;;;;;;19.20;6.25;;;;;;;13.50;49.42;99915.06;4961476;28;20038;-82
2022/04/13 09:43:27;;;;;;;12.10;7.25;;;;;;;12.76;48.93;99799.69;4977099;28;20044;-82
2022/04/13 09:45:55;;;;;;;16.02;6.80;;;;;;;13.07;49.19;99852.22;4977608;28;20069;-79
2022/04/13 09:48:23;;;;;;;19.98;6.65;;;;;;;13.17;49.00;99881.66;4994840;28;20533;-82
2022/04/13 09:50:51;;;;;;;15.43;6.80;;;;;;;13.14;48.99;99891.31;4994426;28;20038;-83
2022/04/13 09:53:20;;;;;;;12.45;6.43;;;;;;;13.37;49.07;99906.53;4996355;28;20456;-83
2022/04/13 09:56:26;;;;;;;15.30;6.78;;;;;;;13.15;49.27;99865.13;4980031;28;20077;-79
2022/04/13 09:58:52;;;;;;;14.00;6.50;;;;;;;13.18;48.46;99912.13;4973624;28;20089;-82
2022/04/13 10:01:20;;;;;;;17.70;6.20;;;;;;;12.69;48.98;99830.25;4984656;28;20042;-80
2022/04/13 10:03:55;;;;;;;10.18;6.20;;;;;;;12.79;48.93;99880.56;5003276;28;20136;-83
2022/04/13 10:06:28;;;;;;;12.35;6.75;;;;;;;12.99;48.36;99927.25;4986082;28;20046;-81
2022/04/13 10:08:59;;;;;;;12.50;6.20;;;;;;;12.40;49.28;99894.22;4979976;28;20038;-81
2022/04/13 10:11:28;;;;;;;10.00;6.63;;;;;;;12.47;49.29;99936.75;4996571;28;20052;-80
2022/04/13 10:13:54;;;;;;;14.48;6.10;;;;;;;12.13;49.77;99900.72;4947333;28;20034;-81
2022/04/13 10:16:21;;;;;;;13.32;6.65;;;;;;;12.26;49.69;99930.09;4998434;28;20137;-78
2022/04/13 10:19:05;;;;;;;14.82;6.25;;;;;;;12.09;49.43;99886.84;4966756;28;20457;-80
2022/04/13 10:21:35;;;;;;;17.10;7.22;;;;;;;12.28;49.97;99937.00;4982515;28;20046;-81
2022/04/13 10:24:02;;;;;;;20.67;9.43;;;;;;;11.72;49.76;99858.59;4999750;28;20084;-80
2022/04/13 10:26:28;;;;;;;12.40;6.70;;;;;;;12.02;50.11;99940.84;4978259;28;20062;-79
2022/04/13 10:28:53;;;;;;;13.15;7.22;;;;;;;11.80;50.79;99914.13;4980890;28;20137;-78
2022/04/13 10:31:19;;;;;;;11.40;6.63;;;;;;;11.92;50.44;99933.97;4989643;28;20462;-81
2022/04/13 10:33:47;;;;;;;12.75;7.28;;;;;;;11.69;50.82;99903.84;4986808;28;20380;-79
2022/04/13 10:36:15;;;;;;;11.02;6.57;;;;;;;11.92;50.49;99930.53;4976630;28;20041;-82
2022/04/13 10:38:41;;;;;;;12.45;7.55;;;;;;;11.87;50.90;99927.94;4975229;28;20042;-81
2022/04/13 10:41:13;;;;;;;11.85;7.15;;;;;;;11.97;51.09;99941.72;4992129;28;20046;-80
2022/04/13 10:43:42;;;;;;;11.70;7.15;;;;;;;12.10;51.23;99940.75;4959589;28;20433;-82
2022/04/13 10:46:09;;;;;;;21.60;8.43;;;;;;;12.09;51.09;99925.97;4975331;28;20426;-79
2022/04/13 10:48:40;;;;;;;16.27;7.53;;;;;;;12.10;51.02;99947.69;4993966;28;20060;-81
2022/04/13 10:51:12;;;;;;;16.73;7.22;;;;;;;12.06;51.11;99954.69;4986798;28;20045;-78
2022/04/13 10:53:50;;;;;;;;;;;;;;;12.09;51.25;99948.56;4985861;28;20073;-81
2022/04/13 10:56:20;;;;;;;12.45;6.43;;;;;;;11.95;50.80;99957.41;5001939;28;20389;-79
2022/04/13 10:59:05;;;;;;;9.90;5.88;;;;;;;11.75;51.12;99955.03;4975396;28;20105;-81
2022/04/13 11:01:55;;;;;;;12.52;6.75;;;;;;;11.67;51.11;99956.88;4974423;28;20057;-81
2022/04/13 11:04:22;;;;;;;9.88;6.07;;;;;;;11.55;51.53;99952.66;4974545;28;20046;-81
2022/04/13 11:06:49;;;;;;;11.73;5.75;;;;;;;11.22;51.33;99954.69;4958577;28;20042;-80
2022/04/13 11:09:25;;;;;;;12.15;5.88;;;;;;;11.04;52.18;99948.78;5000733;28;20224;-81
2022/04/13 11:11:53;;;;;;;11.60;6.03;;;;;;;10.99;51.85;99966.16;5012743;28;20042;-82
2022/04/13 11:14:23;;;;;;;11.82;6.10;;;;;;;10.85;52.48;99976.69;4988272;28;20049;-82
2022/04/13 11:17:05;;;;;;;13.70;7.53;;;;;;;10.83;52.48;99987.13;4994563;28;20053;-83
2022/04/13 11:19:32;;;;;;;12.77;5.75;;;;;;;10.65;52.69;99963.81;4996426;28;20077;-80
2022/04/13 11:21:58;;;;;;;16.63;6.50;;;;;;;10.72;51.90;99982.84;4991860;28;20046;-81
2022/04/13 11:24:30;;;;;;;10.63;5.65;;;;;;;10.52;52.38;99984.69;4973215;28;20057;-81
2022/04/13 11:26:56;;;;;;;11.43;6.32;;;;;;;10.22;52.69;99944.06;4991209;28;20101;-79
2022/04/13 11:29:23;;;;;;;8.80;6.22;;;;;;;10.37;52.81;99980.41;4975459;28;20058;-79
2022/04/13 11:32:02;;;;;;;13.68;5.97;;;;;;;10.30;53.37;99988.25;4990386;28;20046;-79
2022/04/13 11:34:28;;;;;;;12.63;6.38;;;;;;;10.33;53.13;99996.03;4992024;28;20050;-80
2022/04/13 11:36:59;;;;;;;11.55;5.70;;;;;;;10.28;53.52;99997.78;4991814;28;20498;-79
2022/04/13 11:39:45;;;;;;;12.00;6.15;;;;;;;10.30;54.15;99986.53;4974614;28;20093;-79
2022/04/13 11:42:15;;;;;;;12.27;5.57;;;;;;;10.33;53.74;99988.25;4974829;28;20056;-78